createdAt,value
2023-01-17T00:00:35.102Z,5.17
2023-01-17T00:01:34.893Z,5.10
2023-01-17T00:02:34.849Z,5.10
2023-01-17T00:03:34.750Z,5.11
2023-01-17T00:04:34.624Z,5.13
2023-01-17T00:05:34.520Z,5.17
2023-01-17T00:06:34.431Z,5.10
2023-01-17T00:07:34.344Z,5.18
2023-01-17T00:08:34.259Z,5.02
2023-01-17T00:09:34.172Z,5.03
2023-01-17T00:10:34.087Z,5.00
2023-01-17T00:11:33.999Z,5.03
2023-01-17T00:12:33.971Z,5.03
2023-01-17T00:13:34.079Z,5.00
2023-01-17T00:14:33.740Z,5.03
2023-01-17T00:15:33.662Z,5.05
2023-01-17T00:16:33.569Z,5.03
2023-01-17T00:17:33.497Z,5.06
2023-01-17T00:18:33.394Z,5.05
2023-01-17T00:19:33.320Z,4.93
2023-01-17T00:20:33.227Z,4.96
2023-01-17T00:21:33.434Z,4.88
2023-01-17T00:22:33.048Z,4.91
2023-01-17T00:23:32.979Z,4.91
2023-01-17T00:24:32.874Z,4.85
2023-01-17T00:25:32.786Z,4.93
2023-01-17T00:26:32.722Z,5.02
2023-01-17T00:27:32.616Z,4.91
2023-01-17T00:28:32.560Z,4.88
2023-01-17T00:29:32.438Z,4.92
2023-01-17T00:30:32.356Z,4.93
2023-01-17T00:31:32.326Z,4.92
2023-01-17T00:32:32.178Z,4.87
2023-01-17T00:33:32.121Z,4.91
2023-01-17T00:34:32.021Z,4.96
2023-01-17T00:35:31.921Z,4.95
2023-01-17T00:36:31.832Z,4.95
2023-01-17T00:37:32.354Z,4.98
2023-01-17T00:38:32.168Z,4.88
2023-01-17T00:39:31.572Z,5.02
2023-01-17T00:40:31.485Z,4.95
2023-01-17T00:41:31.406Z,4.95
2023-01-17T00:42:31.319Z,4.87
2023-01-17T00:43:31.274Z,4.92
2023-01-17T00:44:31.337Z,4.98
2023-01-17T00:45:31.051Z,4.99
2023-01-17T00:46:31.056Z,5.08
2023-01-17T00:47:30.883Z,5.03
2023-01-17T00:48:30.795Z,4.96
2023-01-17T00:49:30.728Z,4.96
2023-01-17T00:50:30.617Z,5.10
2023-01-17T00:51:30.532Z,4.98
2023-01-17T00:52:30.442Z,4.96
2023-01-17T00:53:30.359Z,4.93
2023-01-17T00:54:30.270Z,4.93
2023-01-17T00:55:30.185Z,4.92
2023-01-17T00:56:30.098Z,4.92
2023-01-17T00:57:30.014Z,4.98
2023-01-17T00:58:29.924Z,4.80
2023-01-17T00:59:29.842Z,4.92
2023-01-17T01:00:29.863Z,4.87
2023-01-17T01:01:29.813Z,4.88
2023-01-17T01:02:29.648Z,4.80
2023-01-17T01:03:29.490Z,4.87
2023-01-17T01:04:29.402Z,4.84
2023-01-17T01:05:29.339Z,4.95
2023-01-17T01:06:29.429Z,4.83
2023-01-17T01:07:29.143Z,4.77
2023-01-17T01:08:29.054Z,4.91
2023-01-17T01:09:28.970Z,4.79
2023-01-17T01:10:28.882Z,4.80
2023-01-17T01:11:28.795Z,4.79
2023-01-17T01:12:28.705Z,4.77
2023-01-17T01:13:28.629Z,4.76
2023-01-17T01:14:28.583Z,4.76
2023-01-17T01:15:28.447Z,4.80
2023-01-17T01:16:28.383Z,4.74
2023-01-17T01:17:28.273Z,4.69
2023-01-17T01:18:28.189Z,4.65
2023-01-17T01:19:28.100Z,4.62
2023-01-17T01:20:28.024Z,4.59
2023-01-17T01:21:27.950Z,4.58
2023-01-17T01:22:27.844Z,4.56
2023-01-17T01:23:27.754Z,4.55
2023-01-17T01:24:27.668Z,4.44
2023-01-17T01:25:27.585Z,4.41
2023-01-17T01:27:09.974Z,4.28
2023-01-17T01:28:09.986Z,4.37
2023-01-17T01:29:09.803Z,4.26
2023-01-17T01:30:09.716Z,4.15
2023-01-17T01:31:09.679Z,4.15
2023-01-17T01:32:09.730Z,4.19
2023-01-17T01:33:09.454Z,4.20
2023-01-17T01:34:09.356Z,4.18
2023-01-17T01:35:09.271Z,4.16
2023-01-17T01:36:09.197Z,4.19
2023-01-17T01:37:09.127Z,4.12
2023-01-17T01:38:09.007Z,4.11
2023-01-17T01:39:08.922Z,4.15
2023-01-17T01:40:08.833Z,4.18
2023-01-17T01:41:08.821Z,4.18
2023-01-17T01:42:08.663Z,4.16
2023-01-17T01:43:08.571Z,4.19
2023-01-17T01:44:08.483Z,4.20
2023-01-17T01:45:08.396Z,4.11
2023-01-17T01:46:08.329Z,4.28
2023-01-17T01:47:08.226Z,4.26
2023-01-17T01:48:08.134Z,4.28
2023-01-17T01:49:08.051Z,4.25
2023-01-17T01:50:07.971Z,4.28
2023-01-17T01:51:07.877Z,4.30
2023-01-17T01:52:07.786Z,4.28
2023-01-17T01:53:07.720Z,4.10
2023-01-17T01:54:07.608Z,4.18
2023-01-17T01:55:07.529Z,4.16
2023-01-17T01:56:07.445Z,4.11
2023-01-17T01:57:07.349Z,4.11
2023-01-17T01:58:07.258Z,4.11
2023-01-17T01:59:07.178Z,4.23
2023-01-17T02:00:07.088Z,4.16
2023-01-17T02:01:07.239Z,4.18
2023-01-17T02:02:06.909Z,4.18
2023-01-17T02:03:07.073Z,4.25
2023-01-17T02:04:06.795Z,4.11
2023-01-17T02:05:06.651Z,4.18
2023-01-17T02:06:06.566Z,4.04
2023-01-17T02:07:06.477Z,4.07
2023-01-17T02:08:06.387Z,4.10
2023-01-17T02:09:09.148Z,4.11
2023-01-17T02:10:06.231Z,4.04
2023-01-17T02:11:06.130Z,4.04
2023-01-17T02:12:06.036Z,4.07
2023-01-17T02:13:05.964Z,4.02
2023-01-17T02:14:05.868Z,4.02
2023-01-17T02:15:05.779Z,4.11
2023-01-17T02:16:05.781Z,4.11
2023-01-17T02:17:05.903Z,4.05
2023-01-17T02:18:05.514Z,3.98
2023-01-17T02:19:05.428Z,4.05
2023-01-17T02:20:05.339Z,4.00
2023-01-17T02:21:05.253Z,4.12
2023-01-17T02:22:05.162Z,4.05
2023-01-17T02:23:05.076Z,4.07
2023-01-17T02:24:04.989Z,4.04
2023-01-17T02:25:04.934Z,4.02
2023-01-17T02:26:04.813Z,4.00
2023-01-17T02:27:04.733Z,4.02
2023-01-17T02:28:04.657Z,4.10
2023-01-17T02:29:04.553Z,4.02
2023-01-17T02:30:04.464Z,4.04
2023-01-17T02:31:04.382Z,4.02
2023-01-17T02:32:04.294Z,4.02
2023-01-17T02:33:04.202Z,4.16
2023-01-17T02:34:04.121Z,4.04
2023-01-17T02:35:04.030Z,4.07
2023-01-17T02:36:04.202Z,4.16
2023-01-17T02:37:03.861Z,4.07
2023-01-17T02:38:03.767Z,4.08
2023-01-17T02:39:03.680Z,4.12
2023-01-17T02:40:03.601Z,4.19
2023-01-17T02:41:03.529Z,4.05
2023-01-17T02:42:03.420Z,4.12
2023-01-17T02:43:03.331Z,4.05
2023-01-17T02:44:03.246Z,4.10
2023-01-17T02:45:03.157Z,4.15
2023-01-17T02:46:03.137Z,4.11
2023-01-17T02:47:02.983Z,4.11
2023-01-17T02:48:02.897Z,4.08
2023-01-17T02:49:02.810Z,4.15
2023-01-17T02:50:02.732Z,4.20
2023-01-17T02:51:02.645Z,4.15
2023-01-17T02:52:02.549Z,4.11
2023-01-17T02:53:02.461Z,4.20
2023-01-17T02:54:02.574Z,4.18
2023-01-17T02:55:02.285Z,4.18
2023-01-17T02:56:02.199Z,4.12
2023-01-17T02:57:02.141Z,4.11
2023-01-17T02:58:02.026Z,4.16
2023-01-17T02:59:01.939Z,4.16
2023-01-17T03:00:01.871Z,4.07
2023-01-17T03:01:01.861Z,4.18
2023-01-17T03:02:01.903Z,4.07
2023-01-17T03:03:01.591Z,4.08
2023-01-17T03:04:01.538Z,4.02
2023-01-17T03:05:01.416Z,4.01
2023-01-17T03:06:01.329Z,4.07
2023-01-17T03:07:01.248Z,4.07
2023-01-17T03:08:01.376Z,4.01
2023-01-17T03:09:01.071Z,4.04
2023-01-17T03:10:00.981Z,4.08
2023-01-17T03:11:00.894Z,4.12
2023-01-17T03:12:00.816Z,4.04
2023-01-17T03:13:00.748Z,4.10
2023-01-17T03:14:00.642Z,4.01
2023-01-17T03:15:00.556Z,4.02
2023-01-17T03:16:00.460Z,4.15
2023-01-17T03:17:00.391Z,4.00
2023-01-17T03:18:00.285Z,3.93
2023-01-17T03:19:00.203Z,3.89
2023-01-17T03:20:00.141Z,3.94
2023-01-17T03:21:00.028Z,3.94
2023-01-17T03:21:59.949Z,3.90
2023-01-17T03:22:59.856Z,3.97
2023-01-17T03:23:59.767Z,3.94
2023-01-17T03:24:59.686Z,4.05
2023-01-17T03:25:59.591Z,3.89
2023-01-17T03:26:59.506Z,3.83
2023-01-17T03:27:59.419Z,3.89
2023-01-17T03:28:59.360Z,3.72
2023-01-17T03:29:59.344Z,3.77
2023-01-17T03:30:59.210Z,3.83
2023-01-17T03:31:59.070Z,3.84
2023-01-17T03:32:58.989Z,3.82
2023-01-17T03:33:58.904Z,3.72
2023-01-17T03:34:58.821Z,3.71
2023-01-17T03:35:58.722Z,3.68
2023-01-17T03:36:58.637Z,3.64
2023-01-17T03:37:58.549Z,3.64
2023-01-17T03:38:58.468Z,3.59
2023-01-17T03:39:58.382Z,3.57
2023-01-17T03:40:58.288Z,3.64
2023-01-17T03:41:58.202Z,3.64
2023-01-17T03:42:58.112Z,3.62
2023-01-17T03:43:58.032Z,3.54
2023-01-17T03:44:57.965Z,3.61
2023-01-17T03:45:57.913Z,3.57
2023-01-17T03:46:57.765Z,3.61
2023-01-17T03:47:57.679Z,3.46
2023-01-17T03:48:57.592Z,3.48
2023-01-17T03:49:57.505Z,3.35
2023-01-17T03:50:57.423Z,3.46
2023-01-17T03:51:57.326Z,3.43
2023-01-17T03:52:57.245Z,3.41
2023-01-17T03:53:57.152Z,3.54
2023-01-17T03:54:57.085Z,3.54
2023-01-17T03:55:56.980Z,3.54
2023-01-17T03:56:57.042Z,3.65
2023-01-17T03:57:56.804Z,3.62
2023-01-17T03:58:56.720Z,3.56
2023-01-17T03:59:56.643Z,3.50
2023-01-17T04:00:56.678Z,3.54
2023-01-17T04:01:56.534Z,3.51
2023-01-17T04:02:56.371Z,3.44
2023-01-17T04:03:56.285Z,3.48
2023-01-17T04:04:56.192Z,3.47
2023-01-17T04:05:56.105Z,3.43
2023-01-17T04:06:56.022Z,3.47
2023-01-17T04:07:55.931Z,3.46
2023-01-17T04:08:55.849Z,3.43
2023-01-17T04:09:55.757Z,3.44
2023-01-17T04:10:55.690Z,3.41
2023-01-17T04:11:55.581Z,3.46
2023-01-17T04:12:55.495Z,3.44
2023-01-17T04:13:55.605Z,3.37
2023-01-17T04:14:55.325Z,3.50
2023-01-17T04:15:55.233Z,3.54
2023-01-17T04:16:55.227Z,3.53
2023-01-17T04:17:55.063Z,3.56
2023-01-17T04:18:54.971Z,3.50
2023-01-17T04:19:55.132Z,3.44
2023-01-17T04:20:54.798Z,3.47
2023-01-17T04:21:54.706Z,3.54
2023-01-17T04:22:54.630Z,3.44
2023-01-17T04:23:54.731Z,3.50
2023-01-17T04:24:54.449Z,3.46
2023-01-17T04:25:54.363Z,3.39
2023-01-17T04:26:54.281Z,3.41
2023-01-17T04:27:54.198Z,3.46
2023-01-17T04:28:54.102Z,3.44
2023-01-17T04:29:54.007Z,3.41
2023-01-17T04:30:53.946Z,3.44
2023-01-17T04:31:53.853Z,3.46
2023-01-17T04:32:53.814Z,3.43
2023-01-17T04:33:54.062Z,3.43
2023-01-17T04:34:53.573Z,3.37
2023-01-17T04:35:53.494Z,3.44
2023-01-17T04:36:53.394Z,3.39
2023-01-17T04:37:53.320Z,3.32
2023-01-17T04:38:53.218Z,3.46
2023-01-17T04:39:53.131Z,3.34
2023-01-17T04:40:53.053Z,3.41
2023-01-17T04:41:52.972Z,3.35
2023-01-17T04:42:52.869Z,3.35
2023-01-17T04:43:52.783Z,3.35
2023-01-17T04:44:52.896Z,3.21
2023-01-17T04:45:52.642Z,3.35
2023-01-17T04:46:52.525Z,3.24
2023-01-17T04:47:52.441Z,3.27
2023-01-17T04:48:52.370Z,3.28
2023-01-17T04:49:52.255Z,3.27
2023-01-17T04:50:52.170Z,3.14
2023-01-17T04:51:52.083Z,3.14
2023-01-17T04:52:51.996Z,3.27
2023-01-17T04:53:51.904Z,3.31
2023-01-17T04:54:51.819Z,3.25
2023-01-17T04:55:51.931Z,3.24
2023-01-17T04:56:51.651Z,3.25
2023-01-17T04:57:51.573Z,3.27
2023-01-17T04:58:51.472Z,3.24
2023-01-17T04:59:51.382Z,3.22
2023-01-17T05:00:51.336Z,3.25
2023-01-17T05:01:51.548Z,3.24
2023-01-17T05:02:51.169Z,3.25
2023-01-17T05:03:51.034Z,3.28
2023-01-17T05:04:50.970Z,3.28
2023-01-17T05:05:50.865Z,3.27
2023-01-17T05:06:50.771Z,3.34
2023-01-17T05:07:50.681Z,3.27
2023-01-17T05:08:50.593Z,3.32
2023-01-17T05:09:50.505Z,3.46
2023-01-17T05:10:50.417Z,3.37
2023-01-17T05:11:50.585Z,3.39
2023-01-17T05:12:50.243Z,3.47
2023-01-17T05:13:50.153Z,3.37
2023-01-17T05:14:50.070Z,3.37
2023-01-17T05:15:50.016Z,3.37
2023-01-17T05:16:49.892Z,3.50
2023-01-17T05:17:49.801Z,3.43
2023-01-17T05:18:49.717Z,3.47
2023-01-17T05:19:49.627Z,3.47
2023-01-17T05:20:49.564Z,3.46
2023-01-17T05:21:49.454Z,3.43
2023-01-17T05:22:49.365Z,3.46
2023-01-17T05:23:49.277Z,3.41
2023-01-17T05:24:49.190Z,3.43
2023-01-17T05:25:49.103Z,3.32
2023-01-17T05:26:50.319Z,3.46
2023-01-17T05:27:48.927Z,3.37
2023-01-17T05:28:48.842Z,3.34
2023-01-17T05:29:48.751Z,3.35
2023-01-17T05:30:48.690Z,3.39
2023-01-17T05:31:48.577Z,3.34
2023-01-17T05:32:48.489Z,3.37
2023-01-17T05:33:48.404Z,3.37
2023-01-17T05:34:48.314Z,3.39
2023-01-17T05:35:48.224Z,3.28
2023-01-17T05:36:48.159Z,3.35
2023-01-17T05:37:48.053Z,3.39
2023-01-17T05:38:47.968Z,3.25
2023-01-17T05:39:47.878Z,3.27
2023-01-17T05:40:47.823Z,3.27
2023-01-17T05:41:47.701Z,3.28
2023-01-17T05:42:47.614Z,3.31
2023-01-17T05:43:47.527Z,3.24
2023-01-17T05:44:47.438Z,3.21
2023-01-17T05:45:47.352Z,3.27
2023-01-17T05:46:47.268Z,3.27
2023-01-17T05:47:47.281Z,3.25
2023-01-17T05:48:47.089Z,3.24
2023-01-17T05:49:47.036Z,3.24
2023-01-17T05:50:46.912Z,3.19
2023-01-17T05:51:46.827Z,3.13
2023-01-17T05:52:46.759Z,3.22
2023-01-17T05:53:47.001Z,3.16
2023-01-17T05:54:46.563Z,3.24
2023-01-17T05:55:46.478Z,3.16
2023-01-17T05:56:46.391Z,3.22
2023-01-17T05:57:46.322Z,3.22
2023-01-17T05:58:46.220Z,3.07
2023-01-17T05:59:46.128Z,3.16
2023-01-17T06:00:46.205Z,3.17
2023-01-17T06:01:45.953Z,3.13
2023-01-17T06:02:45.924Z,3.13
2023-01-17T06:03:45.778Z,3.17
2023-01-17T06:04:45.751Z,3.17
2023-01-17T06:05:45.604Z,3.25
2023-01-17T06:06:45.518Z,3.16
2023-01-17T06:07:45.431Z,3.21
2023-01-17T06:08:45.364Z,3.19
2023-01-17T06:09:45.256Z,3.29
2023-01-17T06:10:45.175Z,3.31
2023-01-17T06:11:45.100Z,3.21
2023-01-17T06:12:44.991Z,3.24
2023-01-17T06:13:44.908Z,3.29
2023-01-17T06:14:44.965Z,3.24
2023-01-17T06:15:44.818Z,3.32
2023-01-17T06:16:44.646Z,3.35
2023-01-17T06:17:44.556Z,3.44
2023-01-17T06:18:44.471Z,3.34
2023-01-17T06:19:44.382Z,3.34
2023-01-17T06:20:44.293Z,3.31
2023-01-17T06:21:44.208Z,3.39
2023-01-17T06:22:44.122Z,3.34
2023-01-17T06:23:44.383Z,3.43
2023-01-17T06:24:43.967Z,3.44
2023-01-17T06:25:43.867Z,3.39
2023-01-17T06:26:43.788Z,3.43
2023-01-17T06:27:43.835Z,3.43
2023-01-17T06:28:43.596Z,3.39
2023-01-17T06:29:43.511Z,3.37
2023-01-17T06:30:43.429Z,3.39
2023-01-17T06:31:43.336Z,3.39
2023-01-17T06:32:43.249Z,3.31
2023-01-17T06:33:43.163Z,3.46
2023-01-17T06:34:43.078Z,3.34
2023-01-17T06:35:42.997Z,3.39
2023-01-17T06:36:42.907Z,3.32
2023-01-17T06:37:42.815Z,3.31
2023-01-17T06:38:42.728Z,3.21
2023-01-17T06:39:42.643Z,3.25
2023-01-17T06:40:42.597Z,3.22
2023-01-17T06:41:42.470Z,3.16
2023-01-17T06:42:42.380Z,3.21
2023-01-17T06:43:42.295Z,3.07
2023-01-17T06:44:42.223Z,3.11
2023-01-17T06:45:42.122Z,3.11
2023-01-17T06:46:42.114Z,3.11
2023-01-17T06:47:41.953Z,3.06
2023-01-17T06:48:41.861Z,2.99
2023-01-17T06:49:41.770Z,3.06
2023-01-17T06:50:41.684Z,2.86
2023-01-17T06:51:43.580Z,2.96
2023-01-17T06:52:41.515Z,3.01
2023-01-17T06:53:41.422Z,3.04
2023-01-17T06:54:41.337Z,3.03
2023-01-17T06:55:41.251Z,3.01
2023-01-17T06:56:41.182Z,2.96
2023-01-17T06:57:41.076Z,3.07
2023-01-17T06:58:40.988Z,2.96
2023-01-17T06:59:40.900Z,2.96
2023-01-17T07:00:41.263Z,2.89
2023-01-17T07:01:40.738Z,2.89
2023-01-17T07:02:40.636Z,2.89
2023-01-17T07:03:40.649Z,2.91
2023-01-17T07:04:40.465Z,2.81
2023-01-17T07:05:40.374Z,2.85
2023-01-17T07:06:40.291Z,2.81
2023-01-17T07:07:40.200Z,2.89
2023-01-17T07:08:40.112Z,2.80
2023-01-17T07:09:40.047Z,2.68
2023-01-17T07:10:39.941Z,2.68
2023-01-17T07:11:39.851Z,2.63
2023-01-17T07:12:39.789Z,2.74
2023-01-17T07:13:39.732Z,2.67
2023-01-17T07:14:39.589Z,2.68
2023-01-17T07:15:39.501Z,2.67
2023-01-17T07:16:39.416Z,2.70
2023-01-17T07:17:39.333Z,2.66
2023-01-17T07:18:39.236Z,2.55
2023-01-17T07:19:39.256Z,2.52
2023-01-17T07:20:39.070Z,2.41
2023-01-17T07:21:38.978Z,2.30
2023-01-17T07:22:38.890Z,2.32
2023-01-17T07:23:38.800Z,2.21
2023-01-17T07:24:38.713Z,2.09
2023-01-17T07:25:38.624Z,2.09
2023-01-17T07:26:38.538Z,2.13
2023-01-17T07:27:38.453Z,2.01
2023-01-17T07:28:38.488Z,2.06
2023-01-17T07:29:38.274Z,2.05
2023-01-17T07:30:38.183Z,1.99
2023-01-17T07:31:38.188Z,1.98
2023-01-17T07:32:38.010Z,1.94
2023-01-17T07:33:37.928Z,1.91
2023-01-17T07:34:37.835Z,1.80
2023-01-17T07:35:37.747Z,1.86
2023-01-17T07:36:37.659Z,1.80
2023-01-17T07:37:37.577Z,1.74
2023-01-17T07:38:37.510Z,1.80
2023-01-17T07:39:37.405Z,1.73
2023-01-17T07:40:42.046Z,1.66
2023-01-17T07:41:37.219Z,1.58
2023-01-17T07:42:37.129Z,1.59
2023-01-17T07:43:37.045Z,1.64
2023-01-17T07:44:37.067Z,1.66
2023-01-17T07:45:36.869Z,1.61
2023-01-17T07:46:37.263Z,1.62
2023-01-17T07:47:36.692Z,1.59
2023-01-17T07:48:39.422Z,1.62
2023-01-17T07:49:36.517Z,1.62
2023-01-17T07:50:36.834Z,1.58
2023-01-17T07:51:36.341Z,1.58
2023-01-17T07:52:36.260Z,1.54
2023-01-17T07:53:36.162Z,1.65
2023-01-17T07:54:36.090Z,1.59
2023-01-17T07:55:35.992Z,1.73
2023-01-17T07:56:35.904Z,1.74
2023-01-17T07:57:35.813Z,1.80
2023-01-17T07:58:35.735Z,1.66
2023-01-17T07:59:35.935Z,1.65
2023-01-17T08:00:35.589Z,1.69
2023-01-17T08:01:35.635Z,1.72
2023-01-17T08:02:35.368Z,1.72
2023-01-17T08:03:35.293Z,1.76
2023-01-17T08:04:35.202Z,1.74
2023-01-17T08:05:35.118Z,1.68
2023-01-17T08:06:35.017Z,1.80
2023-01-17T08:07:34.926Z,1.76
2023-01-17T08:08:34.840Z,1.72
2023-01-17T08:09:34.765Z,1.74
2023-01-17T08:10:35.024Z,1.76
2023-01-17T08:11:34.578Z,1.72
2023-01-17T08:12:34.497Z,1.68
2023-01-17T08:13:34.399Z,1.68
2023-01-17T08:14:34.314Z,1.72
2023-01-17T08:15:34.233Z,1.79
2023-01-17T08:16:34.200Z,1.72
2023-01-17T08:17:34.045Z,1.68
2023-01-17T08:18:33.958Z,1.76
2023-01-17T08:19:33.870Z,1.73
2023-01-17T08:20:33.794Z,1.77
2023-01-17T08:21:33.752Z,1.83
2023-01-17T08:22:33.705Z,1.79
2023-01-17T08:23:33.521Z,1.74
2023-01-17T08:24:33.428Z,1.74
2023-01-17T08:25:33.339Z,1.80
2023-01-17T08:26:33.252Z,1.72
2023-01-17T08:27:35.088Z,1.77
2023-01-17T08:28:33.075Z,1.80
2023-01-17T08:29:32.990Z,1.74
2023-01-17T08:30:32.898Z,1.68
2023-01-17T08:31:32.856Z,1.80
2023-01-17T08:32:32.858Z,1.66
2023-01-17T08:33:32.635Z,1.68
2023-01-17T08:34:32.550Z,1.76
2023-01-17T08:35:33.883Z,1.76
2023-01-17T08:36:32.498Z,1.76
2023-01-17T08:37:32.286Z,1.79
2023-01-17T08:38:32.203Z,1.77
2023-01-17T08:39:32.107Z,1.76
2023-01-17T08:40:32.019Z,1.77
2023-01-17T08:41:31.927Z,1.74
2023-01-17T08:42:31.842Z,1.77
2023-01-17T08:43:31.758Z,1.76
2023-01-17T08:44:31.666Z,1.80
2023-01-17T08:45:31.608Z,1.68
2023-01-17T08:46:32.867Z,1.79
2023-01-17T08:47:31.401Z,1.77
2023-01-17T08:48:31.339Z,1.80
2023-01-17T08:49:31.225Z,1.79
2023-01-17T08:50:31.134Z,1.82
2023-01-17T08:51:31.200Z,1.77
2023-01-17T08:52:31.064Z,1.77
2023-01-17T08:53:30.872Z,1.80
2023-01-17T08:54:30.837Z,1.87
2023-01-17T08:55:30.903Z,1.92
2023-01-17T08:56:30.608Z,2.03
2023-01-17T08:57:30.674Z,2.16
2023-01-17T08:58:30.921Z,2.20
2023-01-17T08:59:30.345Z,2.35
2023-01-17T09:00:30.255Z,2.39
2023-01-17T09:01:30.353Z,2.53
2023-01-17T09:02:30.086Z,2.77
2023-01-17T09:03:29.996Z,3.06
2023-01-17T09:04:29.948Z,3.22
2023-01-17T09:05:29.832Z,3.46
2023-01-17T09:06:29.744Z,3.74
2023-01-17T09:07:29.653Z,3.98
2023-01-17T09:08:30.315Z,4.16
2023-01-17T09:09:29.487Z,4.08
2023-01-17T09:10:29.393Z,3.97
2023-01-17T09:11:29.304Z,4.05
2023-01-17T09:12:29.224Z,4.02
2023-01-17T09:13:29.127Z,4.19
2023-01-17T09:14:29.040Z,4.10
2023-01-17T09:15:28.962Z,4.36
2023-01-17T09:16:28.917Z,4.52
2023-01-17T09:17:28.800Z,4.64
2023-01-17T09:18:28.698Z,4.77
2023-01-17T09:19:28.612Z,4.74
2023-01-17T09:20:28.598Z,4.74
2023-01-17T09:21:28.445Z,4.69
2023-01-17T09:22:28.355Z,4.50
2023-01-17T09:23:28.303Z,4.40
2023-01-17T09:24:28.186Z,4.54
2023-01-17T09:25:28.109Z,4.68
2023-01-17T09:26:28.016Z,4.83
2023-01-17T09:27:27.932Z,4.84
2023-01-17T09:28:27.865Z,4.77
2023-01-17T09:29:27.758Z,4.65
2023-01-17T09:30:27.724Z,4.52
2023-01-17T09:31:27.609Z,4.34
2023-01-17T09:32:27.521Z,4.41
2023-01-17T09:33:27.417Z,4.04
2023-01-17T09:34:27.346Z,4.05
2023-01-17T09:35:27.255Z,3.94
2023-01-17T09:36:27.177Z,4.02
2023-01-17T09:37:27.073Z,4.01
2023-01-17T09:38:26.989Z,4.20
2023-01-17T09:39:26.903Z,4.07
2023-01-17T09:40:26.821Z,4.19
2023-01-17T09:41:26.731Z,4.26
2023-01-17T09:42:26.694Z,4.34
2023-01-17T09:43:26.571Z,4.46
2023-01-17T09:44:26.475Z,4.52
2023-01-17T09:45:26.389Z,4.44
2023-01-17T09:46:26.309Z,4.47
2023-01-17T09:47:26.292Z,4.56
2023-01-17T09:48:26.132Z,4.59
2023-01-17T09:49:26.048Z,4.61
2023-01-17T09:50:25.972Z,4.48
2023-01-17T09:51:25.883Z,4.52
2023-01-17T09:52:25.817Z,4.43
2023-01-17T09:53:25.707Z,4.41
2023-01-17T09:54:25.632Z,4.44
2023-01-17T09:55:25.549Z,4.55
2023-01-17T09:56:25.452Z,4.61
2023-01-17T09:57:25.370Z,4.76
2023-01-17T09:58:25.285Z,4.88
2023-01-17T09:59:32.600Z,4.87
2023-01-17T10:00:25.139Z,4.88
2023-01-17T10:01:25.293Z,4.84
2023-01-17T10:02:26.460Z,4.84
2023-01-17T10:03:24.995Z,4.72
2023-01-17T10:04:24.828Z,4.77
2023-01-17T10:05:24.692Z,4.93
2023-01-17T10:06:24.605Z,4.91
2023-01-17T10:07:24.528Z,4.96
2023-01-17T10:08:24.454Z,5.02
2023-01-17T10:09:24.348Z,5.13
2023-01-17T10:10:24.266Z,5.24
2023-01-17T10:11:24.177Z,5.18
2023-01-17T10:12:24.097Z,5.21
2023-01-17T10:13:24.018Z,5.18
2023-01-17T10:14:23.926Z,5.13
2023-01-17T10:15:23.856Z,5.17
2023-01-17T10:16:23.785Z,5.10
2023-01-17T10:17:23.670Z,5.14
2023-01-17T10:18:30.004Z,4.98
2023-01-17T10:19:23.508Z,4.95
2023-01-17T10:20:23.423Z,4.88
2023-01-17T10:21:23.344Z,4.93
2023-01-17T10:22:23.394Z,4.99
2023-01-17T10:23:23.164Z,4.93
2023-01-17T10:24:23.103Z,4.96
2023-01-17T10:25:22.995Z,5.00
2023-01-17T10:26:22.907Z,5.03
2023-01-17T10:27:22.824Z,5.05
2023-01-17T10:28:22.763Z,5.14
2023-01-17T10:29:22.651Z,5.16
2023-01-17T10:30:22.585Z,5.21
2023-01-17T10:31:22.482Z,5.24
2023-01-17T10:32:22.402Z,5.32
2023-01-17T10:33:22.321Z,5.24
2023-01-17T10:34:22.229Z,5.31
2023-01-17T10:35:22.143Z,5.29
2023-01-17T10:36:22.063Z,5.20
2023-01-17T10:37:21.973Z,5.21
2023-01-17T10:38:21.891Z,5.16
2023-01-17T10:39:21.826Z,5.06
2023-01-17T10:40:21.903Z,5.02
2023-01-17T10:41:21.689Z,4.95
2023-01-17T10:42:21.552Z,4.96
2023-01-17T10:43:21.466Z,4.99
2023-01-17T10:44:21.381Z,5.06
2023-01-17T10:45:21.294Z,5.20
2023-01-17T10:46:21.274Z,5.24
2023-01-17T10:47:21.179Z,5.26
2023-01-17T10:48:23.195Z,5.36
2023-01-17T10:49:20.955Z,5.57
2023-01-17T10:50:20.872Z,5.67
2023-01-17T10:51:21.139Z,5.80
2023-01-17T10:52:20.705Z,5.88
2023-01-17T10:53:20.617Z,6.00
2023-01-17T10:54:20.539Z,6.15
2023-01-17T10:55:20.449Z,6.07
2023-01-17T10:56:20.395Z,6.11
2023-01-17T10:57:20.338Z,6.17
2023-01-17T10:58:20.198Z,6.13
2023-01-17T10:59:20.113Z,6.29
2023-01-17T11:00:20.032Z,6.37
2023-01-17T11:01:20.144Z,6.59
2023-01-17T11:02:20.053Z,6.66
2023-01-17T11:03:19.784Z,6.70
2023-01-17T11:04:19.704Z,6.66
2023-01-17T11:05:19.617Z,6.50
2023-01-17T11:06:19.634Z,6.54
2023-01-17T11:07:19.453Z,6.45
2023-01-17T11:08:19.365Z,6.51
2023-01-17T11:09:19.281Z,6.55
2023-01-17T11:10:19.200Z,6.69
2023-01-17T11:11:19.114Z,6.99
2023-01-17T11:12:19.057Z,7.16
2023-01-17T11:13:18.946Z,7.13
2023-01-17T11:14:18.867Z,7.34
2023-01-17T11:15:18.781Z,7.35
2023-01-17T11:16:18.703Z,7.23
2023-01-17T11:17:18.614Z,7.13
2023-01-17T11:18:18.534Z,7.01
2023-01-17T11:19:18.457Z,6.87
2023-01-17T11:20:18.368Z,6.91
2023-01-17T11:21:18.298Z,7.08
2023-01-17T11:22:18.205Z,7.06
2023-01-17T11:23:18.129Z,7.01
2023-01-17T11:24:18.039Z,6.90
2023-01-17T11:25:17.955Z,6.84
2023-01-17T11:26:17.881Z,6.76
2023-01-17T11:27:17.792Z,6.76
2023-01-17T11:28:17.734Z,6.75
2023-01-17T11:29:17.630Z,6.75
2023-01-17T11:30:17.681Z,6.70
2023-01-17T11:31:17.551Z,6.55
2023-01-17T11:32:17.382Z,6.47
2023-01-17T11:33:17.292Z,6.48
2023-01-17T11:34:17.510Z,6.68
2023-01-17T11:35:17.132Z,6.80
2023-01-17T11:36:17.051Z,6.80
2023-01-17T11:37:16.962Z,6.86
2023-01-17T11:38:16.882Z,6.94
2023-01-17T11:39:16.799Z,7.08
2023-01-17T11:40:16.918Z,7.17
2023-01-17T11:41:16.632Z,7.12
2023-01-17T11:42:16.551Z,7.34
2023-01-17T11:43:16.468Z,7.37
2023-01-17T11:44:16.412Z,7.37
2023-01-17T11:45:16.303Z,7.48
2023-01-17T11:46:16.257Z,7.68
2023-01-17T11:47:16.138Z,7.85
2023-01-17T11:48:16.067Z,7.76
2023-01-17T11:49:15.976Z,7.60
2023-01-17T11:50:15.987Z,7.53
2023-01-17T11:51:15.819Z,7.41
2023-01-17T11:52:15.735Z,7.31
2023-01-17T11:53:15.651Z,7.35
2023-01-17T11:54:15.583Z,7.45
2023-01-17T11:55:15.495Z,7.49
2023-01-17T11:56:15.406Z,7.85
2023-01-17T11:57:15.326Z,7.79
2023-01-17T11:58:15.259Z,7.76
2023-01-17T11:59:15.165Z,7.73
2023-01-17T12:00:15.181Z,7.72
2023-01-17T12:01:15.027Z,7.52
2023-01-17T12:02:14.925Z,7.35
2023-01-17T12:14:16.216Z,6.69
2023-01-17T12:15:16.132Z,6.73
2023-01-17T12:16:16.120Z,6.68
2023-01-17T12:17:15.968Z,6.55
2023-01-17T12:18:15.888Z,6.51
2023-01-17T12:19:15.804Z,6.57
2023-01-17T12:20:15.727Z,6.50
2023-01-17T12:21:15.640Z,6.55
2023-01-17T12:22:15.559Z,6.36
2023-01-17T12:23:15.475Z,6.21
2023-01-17T12:24:15.403Z,6.10
2023-01-17T12:25:15.312Z,5.99
2023-01-17T12:26:15.229Z,5.97
2023-01-17T12:27:15.143Z,6.00
2023-01-17T12:28:15.070Z,6.07
2023-01-17T12:29:14.984Z,5.99
2023-01-17T12:30:14.967Z,5.80
2023-01-17T12:31:14.865Z,5.72
2023-01-17T12:32:14.752Z,5.68
2023-01-17T12:33:14.643Z,5.80
2023-01-17T12:34:14.598Z,5.74
2023-01-17T12:35:14.492Z,5.88
2023-01-17T12:36:14.394Z,6.08
2023-01-17T12:37:14.313Z,6.29
2023-01-17T12:38:27.393Z,6.37
2023-01-17T12:39:14.221Z,6.48
2023-01-17T12:40:14.136Z,6.34
2023-01-17T12:41:13.977Z,6.33
2023-01-17T12:42:13.895Z,6.27
2023-01-17T12:43:13.812Z,6.30
2023-01-17T12:44:13.728Z,6.27
2023-01-17T12:45:13.643Z,6.13
2023-01-17T12:46:13.635Z,6.33
2023-01-17T12:47:13.488Z,6.30
2023-01-17T12:48:13.428Z,6.33
2023-01-17T12:49:13.306Z,6.27
2023-01-17T12:50:13.278Z,6.21
2023-01-17T12:51:13.150Z,6.30
2023-01-17T12:52:13.093Z,6.29
2023-01-17T12:53:12.978Z,6.37
2023-01-17T12:54:12.896Z,6.45
2023-01-17T12:55:12.863Z,6.57
2023-01-17T12:56:12.732Z,6.55
2023-01-17T12:57:14.017Z,6.76
2023-01-17T12:58:12.560Z,6.65
2023-01-17T12:59:12.478Z,6.62
2023-01-17T13:00:12.511Z,6.51
2023-01-17T13:01:12.489Z,6.62
2023-01-17T13:02:12.287Z,6.66
2023-01-17T13:03:12.181Z,6.54
2023-01-17T13:04:12.083Z,6.62
2023-01-17T13:05:11.980Z,6.51
2023-01-17T13:06:11.899Z,6.48
2023-01-17T13:07:11.819Z,6.42
2023-01-17T13:08:11.732Z,6.29
2023-01-17T13:09:11.647Z,6.26
2023-01-17T13:10:11.647Z,6.27
2023-01-17T13:11:11.487Z,6.39
2023-01-17T13:12:11.399Z,6.41
2023-01-17T13:13:11.314Z,6.50
2023-01-17T13:14:11.281Z,6.45
2023-01-17T13:15:11.256Z,6.48
2023-01-17T13:16:11.087Z,6.54
2023-01-17T13:17:10.983Z,6.52
2023-01-17T13:18:10.905Z,6.65
2023-01-17T13:19:10.825Z,6.70
2023-01-17T13:20:10.836Z,6.75
2023-01-17T13:21:10.655Z,6.72
2023-01-17T13:22:10.572Z,6.72
2023-01-17T13:23:10.495Z,6.29
2023-01-17T13:24:10.404Z,6.18
2023-01-17T13:25:10.322Z,6.00
2023-01-17T13:26:10.444Z,5.96
2023-01-17T13:27:10.163Z,5.90
2023-01-17T13:28:10.078Z,5.86
2023-01-17T13:29:09.990Z,5.78